Time;durP1;ratioP1;P1;durP2;ratioP2;P2;SDS_P1;SDS_P2;PMS_P1;PMS_P2;Temp;Humidity;BMP_temperature;BMP_pressure;BME280_temperature;BME280_humidity;BME280_pressure;Samples;Min_cycle;Max_cycle;Signal;HPM_P1;HPM_P2
2021/08/13 00:00:40;;;;;;;18.60;13.82;;;17.60;99.90;;;;;;4992268;28;20079;-76
2021/08/13 00:03:06;;;;;;;16.23;14.00;;;17.60;99.90;;;;;;4992478;28;20015;-76
2021/08/13 00:05:31;;;;;;;16.55;14.40;;;17.60;99.90;;;;;;4991394;28;20130;-77
2021/08/13 00:07:57;;;;;;;15.55;13.90;;;17.60;99.90;;;;;;4992409;28;20022;-76
2021/08/13 00:10:23;;;;;;;20.45;14.73;;;17.60;99.90;;;;;;4992067;28;20026;-76
2021/08/13 00:12:48;;;;;;;16.40;14.55;;;17.60;99.90;;;;;;4991063;28;20031;-75
2021/08/13 00:15:16;;;;;;;16.50;14.75;;;17.60;99.90;;;;;;4992145;28;20042;-76
2021/08/13 00:17:42;;;;;;;15.23;13.25;;;17.60;99.90;;;;;;4991755;28;20027;-75
2021/08/13 00:20:08;;;;;;;19.20;14.00;;;17.60;99.90;;;;;;4993391;28;20486;-77
2021/08/13 00:22:34;;;;;;;17.50;13.20;;;17.50;99.90;;;;;;4995711;28;20030;-74
2021/08/13 00:24:59;;;;;;;16.52;12.95;;;17.50;99.90;;;;;;4995640;28;20374;-75
2021/08/13 00:27:25;;;;;;;15.23;13.52;;;17.50;99.90;;;;;;4995069;28;20497;-76
2021/08/13 00:29:50;;;;;;;18.42;13.80;;;17.50;99.90;;;;;;4981539;28;20109;-77
2021/08/13 00:32:16;;;;;;;17.85;14.45;;;17.40;99.90;;;;;;4995509;28;20113;-76
2021/08/13 00:34:41;;;;;;;18.15;14.98;;;17.40;99.90;;;;;;4994637;28;20351;-77
2021/08/13 00:37:07;;;;;;;18.00;15.02;;;17.40;99.90;;;;;;4995683;28;20018;-77
2021/08/13 00:39:33;;;;;;;17.08;14.45;;;17.30;99.90;;;;;;4994572;28;20084;-78
2021/08/13 00:41:58;;;;;;;18.73;14.25;;;17.30;99.90;;;;;;4994590;28;20113;-76
2021/08/13 00:44:24;;;;;;;16.48;14.75;;;17.30;99.90;;;;;;4982639;28;20109;-76
2021/08/13 00:46:50;;;;;;;19.63;14.63;;;17.30;99.90;;;;;;4994224;28;20120;-77
2021/08/13 00:49:15;;;;;;;15.52;13.60;;;17.30;99.90;;;;;;4995380;28;20093;-76
2021/08/13 00:51:43;;;;;;;17.10;14.43;;;17.40;99.90;;;;;;4994897;28;20023;-76
2021/08/13 00:54:09;;;;;;;22.23;15.82;;;17.30;99.90;;;;;;4994484;28;20030;-76
2021/08/13 00:56:34;;;;;;;18.02;14.05;;;17.30;99.90;;;;;;4986060;28;20512;-76
2021/08/13 00:59:00;;;;;;;15.18;13.63;;;17.30;99.90;;;;;;4990445;28;20050;-76
2021/08/13 01:01:25;;;;;;;15.27;13.68;;;17.30;99.90;;;;;;4994220;28;20069;-76
2021/08/13 01:03:51;;;;;;;17.10;13.98;;;17.20;99.90;;;;;;4994727;28;20034;-76
2021/08/13 01:06:17;;;;;;;15.45;13.80;;;17.20;99.90;;;;;;4995007;28;20053;-76
2021/08/13 01:08:44;;;;;;;18.05;14.35;;;17.20;99.90;;;;;;4993817;28;20041;-78
2021/08/13 01:11:09;;;;;;;17.30;15.05;;;17.20;99.90;;;;;;4994698;28;20053;-76
2021/08/13 01:13:49;;;;;;;19.88;15.50;;;17.20;99.90;;;;;;4994530;28;20061;-76
2021/08/13 01:16:17;;;;;;;19.23;15.10;;;17.20;99.90;;;;;;4987642;28;20040;-76
2021/08/13 01:19:19;;;;;;;20.00;15.75;;;17.20;99.90;;;;;;4987773;28;20027;-76
2021/08/13 01:21:54;;;;;;;23.20;15.00;;;17.20;99.90;;;;;;4993024;28;20030;-76
2021/08/13 01:24:25;;;;;;;19.30;15.80;;;17.10;99.90;;;;;;4994416;28;20030;-75
2021/08/13 01:26:52;;;;;;;;;;;17.10;99.90;;;;;;4994915;28;20062;-77
2021/08/13 01:29:29;;;;;;;22.65;15.52;;;17.10;99.90;;;;;;4993791;28;20005;-76
2021/08/13 01:32:10;;;;;;;23.55;15.93;;;17.10;99.90;;;;;;4993720;28;20109;-77
2021/08/13 01:34:50;;;;;;;20.15;14.95;;;17.10;99.90;;;;;;4994261;28;20430;-77
2021/08/13 01:37:19;;;;;;;19.50;15.50;;;17.10;99.90;;;;;;4993960;28;20034;-75
2021/08/13 01:39:47;;;;;;;21.38;17.52;;;17.10;99.90;;;;;;4996479;28;20057;-76
2021/08/13 01:42:13;;;;;;;22.77;16.88;;;17.00;99.90;;;;;;4996356;28;20030;-75
2021/08/13 01:44:40;;;;;;;24.42;16.63;;;17.10;99.90;;;;;;4993577;28;20023;-75
2021/08/13 01:47:06;;;;;;;24.85;16.38;;;17.10;99.90;;;;;;4994233;28;20022;-76
2021/08/13 01:49:32;;;;;;;22.17;16.27;;;17.10;99.90;;;;;;4993649;28;20053;-76
2021/08/13 01:52:00;;;;;;;22.65;17.58;;;17.10;99.90;;;;;;4993588;28;20054;-76
2021/08/13 01:54:26;;;;;;;26.15;17.30;;;17.00;99.90;;;;;;4994137;28;20343;-75
2021/08/13 01:56:54;;;;;;;22.80;18.67;;;17.00;99.90;;;;;;4993308;28;20508;-76
2021/08/13 01:59:20;;;;;;;20.63;16.40;;;17.00;99.90;;;;;;4995352;28;20046;-76
2021/08/13 02:01:46;;;;;;;21.77;16.10;;;17.00;99.90;;;;;;4993459;28;20137;-76
2021/08/13 02:04:17;;;;;;;25.90;17.27;;;17.00;99.90;;;;;;4993517;28;20018;-76
2021/08/13 02:06:43;;;;;;;20.77;15.20;;;17.00;99.90;;;;;;4993521;28;20026;-76
2021/08/13 02:09:10;;;;;;;22.40;15.40;;;16.90;99.90;;;;;;4993825;28;20030;-76
2021/08/13 02:11:35;;;;;;;22.40;16.35;;;16.90;99.90;;;;;;4992775;28;20359;-76
2021/08/13 02:14:01;;;;;;;22.73;17.00;;;16.90;99.90;;;;;;4993825;28;20101;-75
2021/08/13 02:16:30;;;;;;;21.83;17.17;;;16.90;99.90;;;;;;4994833;28;20417;-76
2021/08/13 02:19:08;;;;;;;27.23;17.60;;;16.90;99.90;;;;;;4993185;28;20018;-77
2021/08/13 02:21:38;;;;;;;24.63;16.55;;;16.90;99.90;;;;;;4993315;28;20525;-76
2021/08/13 02:24:04;;;;;;;22.83;17.58;;;16.90;99.90;;;;;;4993387;28;20069;-77
2021/08/13 02:26:31;;;;;;;21.67;16.13;;;16.90;99.90;;;;;;4992460;28;20417;-77
2021/08/13 02:28:57;;;;;;;22.05;16.75;;;16.90;99.90;;;;;;4993168;28;20101;-77
2021/08/13 02:31:22;;;;;;;27.17;17.10;;;17.00;99.90;;;;;;4993628;28;20026;-77
2021/08/13 02:33:48;;;;;;;24.95;18.10;;;16.90;99.90;;;;;;4992567;28;20426;-77
2021/08/13 02:36:16;;;;;;;26.65;17.10;;;16.90;99.90;;;;;;4992986;28;20470;-77
2021/08/13 02:38:58;;;;;;;32.55;17.63;;;16.90;99.90;;;;;;4992985;28;20062;-76
2021/08/13 02:41:25;;;;;;;27.60;16.33;;;16.90;99.90;;;;;;4965837;28;20038;-76
2021/08/13 02:43:58;;;;;;;26.92;19.20;;;16.90;99.90;;;;;;4992981;28;20105;-76
2021/08/13 02:46:28;;;;;;;26.17;17.70;;;16.90;99.90;;;;;;4978845;28;20104;-77
2021/08/13 02:48:54;;;;;;;;;;;16.90;99.90;;;;;;4993732;28;20022;-77
2021/08/13 02:51:27;;;;;;;24.95;15.85;;;16.90;99.90;;;;;;4989451;28;20297;-77
2021/08/13 02:53:54;;;;;;;28.05;16.63;;;16.80;99.90;;;;;;4983482;28;20038;-76
2021/08/13 02:56:24;;;;;;;23.88;16.67;;;16.80;99.90;;;;;;4993068;28;20081;-77
2021/08/13 02:58:56;;;;;;;22.73;17.88;;;16.80;99.90;;;;;;4992727;28;20043;-77
2021/08/13 03:01:25;;;;;;;26.95;16.70;;;16.80;99.90;;;;;;4992258;28;20081;-77
2021/08/13 03:03:53;;;;;;;20.90;16.40;;;16.80;99.90;;;;;;4992902;28;20106;-77
2021/08/13 03:06:20;;;;;;;23.30;17.55;;;16.70;99.90;;;;;;4992821;28;20126;-77
2021/08/13 03:08:47;;;;;;;22.45;16.58;;;16.70;99.90;;;;;;4992084;28;20410;-77
2021/08/13 03:11:14;;;;;;;31.50;17.35;;;16.70;99.90;;;;;;4993076;28;20027;-77
2021/08/13 03:13:41;;;;;;;23.88;17.05;;;16.70;99.90;;;;;;4992422;28;20061;-76
2021/08/13 03:16:07;;;;;;;24.60;16.73;;;16.70;99.90;;;;;;4992296;28;20066;-77
2021/08/13 03:18:34;;;;;;;23.65;17.27;;;16.70;99.90;;;;;;4992713;28;20521;-77
2021/08/13 03:21:00;;;;;;;23.98;17.30;;;16.70;99.90;;;;;;4992914;28;20083;-75
2021/08/13 03:23:26;;;;;;;23.80;17.75;;;16.70;99.90;;;;;;4992018;28;20038;-75
2021/08/13 03:25:52;;;;;;;24.67;17.33;;;17.10;99.90;;;;;;4992999;28;20022;-75
2021/08/13 03:28:18;;;;;;;23.42;17.95;;;16.60;99.90;;;;;;4992209;28;20080;-76
2021/08/13 03:30:44;;;;;;;24.70;17.88;;;16.60;99.90;;;;;;4992309;28;20457;-75
2021/08/13 03:33:12;;;;;;;26.48;16.70;;;16.60;99.90;;;;;;4992699;28;20026;-77
2021/08/13 03:35:41;;;;;;;24.42;17.20;;;16.60;99.90;;;;;;4991386;28;20443;-77
2021/08/13 03:38:08;;;;;;;27.05;18.30;;;16.60;99.90;;;;;;4992699;28;20108;-76
2021/08/13 03:40:34;;;;;;;19.27;16.10;;;16.60;99.90;;;;;;4992299;28;20105;-77
2021/08/13 03:42:59;;;;;;;24.33;17.15;;;16.60;99.90;;;;;;4991654;28;20447;-76
2021/08/13 03:45:25;;;;;;;29.88;17.77;;;16.50;99.90;;;;;;4992589;28;20084;-77
2021/08/13 03:47:51;;;;;;;26.98;18.58;;;16.50;99.90;;;;;;4992173;28;20019;-75
2021/08/13 03:50:16;;;;;;;25.80;17.65;;;16.50;99.90;;;;;;4991686;28;20034;-75
2021/08/13 03:52:43;;;;;;;27.08;16.73;;;16.50;99.90;;;;;;4992187;28;20026;-77
2021/08/13 03:55:10;;;;;;;24.88;16.85;;;16.50;99.90;;;;;;4994454;28;20030;-76
2021/08/13 03:57:42;;;;;;;22.77;17.20;;;16.50;99.90;;;;;;4995432;28;20386;-76
2021/08/13 04:00:10;;;;;;;24.73;16.35;;;16.40;99.90;;;;;;4969540;28;20034;-77
2021/08/13 04:02:35;;;;;;;21.70;15.15;;;16.40;99.90;;;;;;4995796;28;20030;-76
2021/08/13 04:05:01;;;;;;;24.42;15.88;;;16.40;99.90;;;;;;4995468;28;20022;-76
2021/08/13 04:07:27;;;;;;;22.35;16.13;;;16.40;99.90;;;;;;4996637;28;20359;-77
2021/08/13 04:09:52;;;;;;;21.42;15.68;;;16.40;99.90;;;;;;4996331;28;20560;-75
2021/08/13 04:12:19;;;;;;;20.90;15.30;;;16.40;99.90;;;;;;4995365;28;20049;-76
2021/08/13 04:14:44;;;;;;;19.50;14.23;;;16.30;99.90;;;;;;4995446;28;20045;-76
2021/08/13 04:17:10;;;;;;;18.60;13.45;;;16.30;99.90;;;;;;4995490;28;20498;-76
2021/08/13 04:19:35;;;;;;;18.48;13.93;;;16.40;99.90;;;;;;4995058;28;20471;-76
2021/08/13 04:22:02;;;;;;;23.70;14.52;;;16.40;99.90;;;;;;4995578;28;20030;-75
2021/08/13 04:24:27;;;;;;;21.27;14.13;;;16.40;99.90;;;;;;4995401;28;20037;-76
2021/08/13 04:26:53;;;;;;;18.02;12.65;;;16.40;99.90;;;;;;4995492;28;20382;-77
2021/08/13 04:29:19;;;;;;;22.23;13.95;;;16.40;99.90;;;;;;4995594;28;20030;-75
2021/08/13 04:31:44;;;;;;;15.48;13.05;;;16.30;99.90;;;;;;4994650;28;20434;-76
2021/08/13 04:34:10;;;;;;;16.38;12.80;;;16.40;99.90;;;;;;4995520;28;20022;-75
2021/08/13 04:36:35;;;;;;;20.30;12.93;;;16.30;99.90;;;;;;4995166;28;20053;-74
2021/08/13 04:39:01;;;;;;;14.98;12.95;;;16.40;99.90;;;;;;4994757;28;20041;-75
2021/08/13 04:41:27;;;;;;;21.75;14.15;;;16.40;99.90;;;;;;4995059;28;20034;-76
2021/08/13 04:43:52;;;;;;;17.85;13.32;;;16.40;99.90;;;;;;4995448;28;20109;-75
2021/08/13 04:46:18;;;;;;;15.13;12.32;;;16.40;99.90;;;;;;4994544;28;20375;-75
2021/08/13 04:48:43;;;;;;;18.63;12.43;;;16.40;99.90;;;;;;4995047;28;20038;-76
2021/08/13 04:51:09;;;;;;;16.98;11.38;;;16.40;99.90;;;;;;4995039;28;20113;-76
2021/08/13 04:53:35;;;;;;;13.82;11.07;;;16.40;99.90;;;;;;4994296;28;20026;-76
2021/08/13 04:56:00;;;;;;;17.30;11.52;;;16.50;99.90;;;;;;4994735;28;20482;-76
2021/08/13 04:58:26;;;;;;;16.23;12.60;;;16.50;99.90;;;;;;4995012;28;20027;-75
2021/08/13 05:00:51;;;;;;;19.17;11.60;;;16.50;99.90;;;;;;4994128;28;20034;-77
2021/08/13 05:03:17;;;;;;;14.70;10.77;;;16.60;99.90;;;;;;4995039;28;20375;-76
2021/08/13 05:05:43;;;;;;;21.00;11.60;;;16.60;99.90;;;;;;4993583;28;20101;-77
2021/08/13 05:08:08;;;;;;;15.88;10.88;;;16.60;99.90;;;;;;4994054;28;20109;-76
2021/08/13 05:10:34;;;;;;;15.52;11.75;;;16.70;99.90;;;;;;4994500;28;20029;-76
2021/08/13 05:13:00;;;;;;;14.32;11.25;;;16.80;99.90;;;;;;4994892;28;20109;-77
2021/08/13 05:15:25;;;;;;;14.98;10.38;;;16.80;99.90;;;;;;4993675;28;20035;-75
2021/08/13 05:17:54;;;;;;;12.60;10.02;;;16.90;99.90;;;;;;4994927;28;20030;-77
2021/08/13 05:20:19;;;;;;;11.55;10.00;;;17.00;99.90;;;;;;4994797;28;20029;-76
2021/08/13 05:22:45;;;;;;;12.93;10.32;;;17.00;99.90;;;;;;4993777;28;20426;-76
2021/08/13 05:25:13;;;;;;;13.32;10.50;;;17.10;99.90;;;;;;4994663;28;20069;-77
2021/08/13 05:27:39;;;;;;;17.00;11.65;;;17.20;99.90;;;;;;4994291;28;20034;-76
2021/08/13 05:30:05;;;;;;;10.52;9.43;;;17.20;99.90;;;;;;4993788;28;20101;-75
2021/08/13 05:32:31;;;;;;;16.73;12.18;;;17.30;99.90;;;;;;4995254;28;20446;-76
2021/08/13 05:34:56;;;;;;;11.80;10.00;;;17.40;99.90;;;;;;4994287;28;20019;-76
2021/08/13 05:37:24;;;;;;;11.98;9.95;;;17.40;99.90;;;;;;4994854;28;20053;-74
2021/08/13 05:39:50;;;;;;;13.40;10.00;;;17.40;99.90;;;;;;4994323;28;20030;-77
2021/08/13 05:42:15;;;;;;;13.32;10.63;;;17.50;99.90;;;;;;4993670;28;20030;-76
2021/08/13 05:44:41;;;;;;;15.02;11.73;;;17.50;99.90;;;;;;4993821;28;20014;-76
2021/08/13 05:47:07;;;;;;;11.50;9.85;;;17.50;99.90;;;;;;4994302;28;20489;-76
2021/08/13 05:49:32;;;;;;;12.35;9.68;;;17.50;99.90;;;;;;4993128;28;20425;-77
2021/08/13 05:51:58;;;;;;;13.75;9.50;;;17.60;99.90;;;;;;4997198;28;20041;-78
2021/08/13 05:54:25;;;;;;;10.77;9.40;;;17.60;99.90;;;;;;4992933;28;20034;-76
2021/08/13 05:56:51;;;;;;;15.65;10.63;;;17.60;99.90;;;;;;4993051;28;20034;-76
2021/08/13 05:59:16;;;;;;;16.25;10.32;;;17.60;99.90;;;;;;4993699;28;20122;-76
2021/08/13 06:01:42;;;;;;;15.10;9.70;;;17.60;99.90;;;;;;4993374;28;20022;-76
2021/08/13 06:04:08;;;;;;;12.10;9.73;;;17.60;99.90;;;;;;4993333;28;20031;-77
2021/08/13 06:06:33;;;;;;;16.42;9.00;;;17.70;99.90;;;;;;4993408;28;20029;-76
2021/08/13 06:08:59;;;;;;;12.80;9.02;;;17.80;99.90;;;;;;4993699;28;20026;-77
2021/08/13 06:11:25;;;;;;;16.88;9.90;;;17.80;99.90;;;;;;4992922;28;20113;-77
2021/08/13 06:13:50;;;;;;;11.88;9.02;;;17.90;99.90;;;;;;4993064;28;20061;-76
2021/08/13 06:16:19;;;;;;;13.50;9.23;;;17.90;99.90;;;;;;4993665;28;20049;-76
2021/08/13 06:18:45;;;;;;;14.77;10.18;;;18.00;99.90;;;;;;4992177;28;20026;-76
2021/08/13 06:21:12;;;;;;;13.45;8.40;;;18.00;99.90;;;;;;4993621;28;20529;-77
2021/08/13 06:23:37;;;;;;;11.52;9.30;;;18.00;99.90;;;;;;4993244;28;20030;-77
2021/08/13 06:26:03;;;;;;;17.60;8.57;;;18.10;99.90;;;;;;4992710;28;20383;-77
2021/08/13 06:28:28;;;;;;;14.35;8.18;;;18.10;99.90;;;;;;4993215;28;20022;-78
2021/08/13 06:30:54;;;;;;;16.70;8.07;;;18.10;99.90;;;;;;4994935;28;20018;-78
2021/08/13 06:33:20;;;;;;;14.25;9.07;;;18.20;99.90;;;;;;4995481;28;20173;-76
2021/08/13 06:35:45;;;;;;;13.65;7.57;;;18.40;99.90;;;;;;4994084;28;20045;-76
2021/08/13 06:38:11;;;;;;;12.35;8.90;;;18.30;99.90;;;;;;4992493;28;20018;-76
2021/08/13 06:40:36;;;;;;;11.45;8.02;;;18.30;99.90;;;;;;4992891;28;20029;-75
2021/08/13 06:43:02;;;;;;;17.13;8.82;;;18.30;99.90;;;;;;4992729;28;20521;-75
2021/08/13 06:45:28;;;;;;;13.95;9.25;;;18.40;99.90;;;;;;4992247;28;20031;-76
2021/08/13 06:47:54;;;;;;;14.68;8.57;;;18.40;99.90;;;;;;4993162;28;20053;-75
2021/08/13 06:50:20;;;;;;;13.63;8.80;;;18.50;99.90;;;;;;4993004;28;20449;-76
2021/08/13 06:52:45;;;;;;;11.85;8.85;;;18.50;99.90;;;;;;4991692;28;20540;-75
2021/08/13 06:55:12;;;;;;;13.95;9.48;;;18.60;99.90;;;;;;4992879;28;20030;-75
2021/08/13 06:57:38;;;;;;;12.98;8.90;;;18.60;99.90;;;;;;4992528;28;20030;-76
2021/08/13 07:00:06;;;;;;;12.98;9.02;;;18.60;99.90;;;;;;4991824;28;20042;-76
2021/08/13 07:02:31;;;;;;;13.38;9.45;;;18.60;99.90;;;;;;4992818;28;20482;-77
2021/08/13 07:04:57;;;;;;;13.25;9.13;;;18.60;99.90;;;;;;4992898;28;20022;-77
2021/08/13 07:07:22;;;;;;;11.32;10.23;;;18.60;99.90;;;;;;4992628;28;20057;-75
2021/08/13 07:09:49;;;;;;;16.33;9.80;;;18.70;99.90;;;;;;4992623;28;20089;-77
2021/08/13 07:12:15;;;;;;;16.85;10.88;;;18.70;99.90;;;;;;4992521;28;20064;-76
2021/08/13 07:14:41;;;;;;;17.45;11.43;;;18.70;99.90;;;;;;4991930;28;20552;-76
2021/08/13 07:17:08;;;;;;;18.67;11.07;;;18.80;99.90;;;;;;4992595;28;20065;-77
2021/08/13 07:19:33;;;;;;;11.25;10.15;;;18.80;99.90;;;;;;4984542;28;20077;-75
2021/08/13 07:21:59;;;;;;;16.58;10.05;;;19.10;99.90;;;;;;4986191;28;20429;-75
2021/08/13 07:24:24;;;;;;;12.50;10.40;;;18.90;99.90;;;;;;4992510;28;20025;-76
2021/08/13 07:26:50;;;;;;;15.82;10.30;;;18.90;99.90;;;;;;4992200;28;20023;-76
2021/08/13 07:29:16;;;;;;;16.90;10.45;;;19.00;99.90;;;;;;4993043;28;20072;-78
2021/08/13 07:31:42;;;;;;;18.70;11.05;;;19.40;99.90;;;;;;4997374;28;20018;-76
2021/08/13 07:34:07;;;;;;;14.13;9.90;;;19.20;99.90;;;;;;4997275;28;20034;-76
2021/08/13 07:36:33;;;;;;;13.90;8.70;;;19.30;99.90;;;;;;4996122;28;20049;-76
2021/08/13 07:38:58;;;;;;;15.35;9.75;;;19.40;99.90;;;;;;4996890;28;20433;-77
2021/08/13 07:41:24;;;;;;;13.02;8.75;;;19.50;99.90;;;;;;4996300;28;20026;-76
2021/08/13 07:43:49;;;;;;;12.07;8.45;;;19.60;99.90;;;;;;4996731;28;20502;-77
2021/08/13 07:46:15;;;;;;;11.68;6.35;;;19.60;99.90;;;;;;4996729;28;20463;-76
2021/08/13 07:48:41;;;;;;;7.82;5.13;;;19.60;99.90;;;;;;4995677;28;20022;-75
2021/08/13 07:51:07;;;;;;;10.73;6.00;;;19.50;99.90;;;;;;4996485;28;20117;-77
2021/08/13 07:53:33;;;;;;;7.28;4.95;;;19.50;99.90;;;;;;4996577;28;20118;-77
2021/08/13 07:55:59;;;;;;;9.10;5.15;;;19.50;99.90;;;;;;4995645;28;20486;-77
2021/08/13 07:58:24;;;;;;;8.10;5.05;;;19.60;99.90;;;;;;4996623;28;20061;-77
2021/08/13 08:00:52;;;;;;;8.38;4.97;;;19.80;99.90;;;;;;4996476;28;20030;-77
2021/08/13 08:03:18;;;;;;;6.32;4.40;;;19.90;99.90;;;;;;4995812;28;20026;-77
2021/08/13 08:05:43;;;;;;;10.57;4.85;;;19.90;99.90;;;;;;4996132;28;20053;-77
2021/08/13 08:08:09;;;;;;;14.65;5.05;;;19.90;99.90;;;;;;4996503;28;20022;-76
2021/08/13 08:10:34;;;;;;;9.40;4.60;;;19.90;99.90;;;;;;4994871;28;20106;-77
2021/08/13 08:13:01;;;;;;;8.40;4.75;;;19.90;99.90;;;;;;4986169;28;20031;-76
2021/08/13 08:15:27;;;;;;;7.05;4.13;;;19.90;99.90;;;;;;4992532;28;20034;-76
2021/08/13 08:17:56;;;;;;;10.00;5.07;;;20.00;99.90;;;;;;4995516;28;20038;-77
2021/08/13 08:20:21;;;;;;;9.38;4.97;;;20.00;99.90;;;;;;4996019;28;20394;-76
2021/08/13 08:22:47;;;;;;;8.02;4.32;;;20.00;99.90;;;;;;4996002;28;20019;-76
2021/08/13 08:25:13;;;;;;;9.18;4.80;;;20.00;99.90;;;;;;4994352;28;20033;-76
2021/08/13 08:27:38;;;;;;;12.80;5.13;;;20.00;99.90;;;;;;4995387;28;20026;-75
2021/08/13 08:30:06;;;;;;;8.82;4.57;;;20.10;99.90;;;;;;4996128;28;20022;-78
2021/08/13 08:32:32;;;;;;;5.18;3.70;;;20.20;99.90;;;;;;4995058;28;20041;-77
2021/08/13 08:34:58;;;;;;;8.02;4.25;;;20.20;99.90;;;;;;4996236;28;20019;-76
2021/08/13 08:37:23;;;;;;;5.93;3.90;;;20.30;99.90;;;;;;4995822;28;20018;-76
2021/08/13 08:39:49;;;;;;;7.18;3.35;;;20.40;99.90;;;;;;4994617;28;20018;-77
2021/08/13 08:42:20;;;;;;;8.70;4.13;;;20.50;99.90;;;;;;4995843;28;20022;-77
2021/08/13 08:44:46;;;;;;;6.15;4.15;;;20.50;99.90;;;;;;4980987;28;20015;-77
2021/08/13 08:47:12;;;;;;;8.93;4.18;;;20.60;99.90;;;;;;4995537;28;20501;-77
2021/08/13 08:49:41;;;;;;;8.98;4.05;;;20.80;99.90;;;;;;4995306;28;20026;-77
2021/08/13 08:52:08;;;;;;;8.27;4.22;;;20.90;99.90;;;;;;4995114;28;20442;-78
2021/08/13 08:54:40;;;;;;;7.40;4.63;;;21.00;99.90;;;;;;4995413;28;20037;-77
2021/08/13 08:57:06;;;;;;;9.40;4.78;;;21.10;99.90;;;;;;4998077;28;20030;-77
2021/08/13 08:59:32;;;;;;;6.13;3.70;;;21.30;99.90;;;;;;4998444;28;20085;-77
2021/08/13 09:01:59;;;;;;;9.15;4.10;;;21.50;99.90;;;;;;4995852;28;20022;-77
2021/08/13 09:04:25;;;;;;;8.70;4.57;;;21.60;99.90;;;;;;4995475;28;20050;-78
2021/08/13 09:06:51;;;;;;;5.05;3.63;;;21.80;99.90;;;;;;4994326;28;20478;-77
2021/08/13 09:09:18;;;;;;;8.50;3.97;;;21.90;99.90;;;;;;4997422;28;20039;-76
2021/08/13 09:11:45;;;;;;;5.00;4.20;;;21.90;99.90;;;;;;4982192;28;20042;-78
2021/08/13 09:14:13;;;;;;;6.47;3.38;;;21.90;99.90;;;;;;4981055;28;20387;-79
2021/08/13 09:16:40;;;;;;;5.97;3.60;;;21.90;99.90;;;;;;4994764;28;20563;-77
2021/08/13 09:19:12;;;;;;;6.13;3.40;;;21.80;99.90;;;;;;4995443;28;20023;-77
2021/08/13 09:21:37;;;;;;;7.32;3.83;;;21.70;99.90;;;;;;4995465;28;20113;-77
2021/08/13 09:24:11;;;;;;;6.50;3.95;;;21.80;99.90;;;;;;4995245;28;20027;-77
2021/08/13 09:26:41;;;;;;;8.20;3.72;;;21.80;99.90;;;;;;4995980;28;20100;-76
2021/08/13 09:29:20;;;;;;;11.50;4.35;;;21.90;99.90;;;;;;4994856;28;20029;-77
2021/08/13 09:31:51;;;;;;;5.15;3.10;;;22.00;99.90;;;;;;4994637;28;20031;-77
2021/08/13 09:34:26;;;;;;;4.90;3.13;;;22.10;99.90;;;;;;4994287;28;20038;-77
2021/08/13 09:36:51;;;;;;;7.95;3.88;;;22.20;99.90;;;;;;4995043;28;20042;-77
2021/08/13 09:39:40;;;;;;;4.43;3.42;;;22.10;99.90;;;;;;4994878;28;20022;-77
2021/08/13 09:42:08;;;;;;;7.10;4.05;;;22.10;99.90;;;;;;4993947;28;20030;-76
2021/08/13 09:44:39;;;;;;;6.93;4.07;;;22.00;99.90;;;;;;4994426;28;20022;-77
2021/08/13 09:47:10;;;;;;;4.28;3.70;;;22.00;99.90;;;;;;4984199;28;20027;-77
2021/08/13 09:49:38;;;;;;;10.13;3.42;;;22.00;99.90;;;;;;4991215;28;20027;-77
2021/08/13 09:52:14;;;;;;;7.35;3.95;;;22.00;99.90;;;;;;4993608;28;20049;-77
2021/08/13 09:54:40;;;;;;;7.53;3.13;;;21.90;99.90;;;;;;4990536;28;20410;-77
2021/08/13 09:57:14;;;;;;;10.80;3.92;;;21.90;99.90;;;;;;4983084;28;20035;-77
2021/08/13 10:00:00;;;;;;;6.57;3.58;;;21.80;99.90;;;;;;4991310;28;20051;-77
2021/08/13 10:02:31;;;;;;;7.35;3.30;;;21.90;99.90;;;;;;4985030;28;20026;-76
2021/08/13 10:04:56;;;;;;;6.63;3.33;;;21.90;99.90;;;;;;4993933;28;20022;-78
2021/08/13 10:07:22;;;;;;;4.55;2.88;;;22.00;99.90;;;;;;4993823;28;20057;-77
2021/08/13 10:09:49;;;;;;;6.38;2.47;;;22.10;99.90;;;;;;4993306;28;20069;-78
2021/08/13 10:12:15;;;;;;;4.57;2.92;;;21.90;99.90;;;;;;4993829;28;20022;-77
2021/08/13 10:14:43;;;;;;;4.93;2.80;;;21.80;99.90;;;;;;4993656;28;20386;-78
2021/08/13 10:17:09;;;;;;;7.65;2.95;;;21.80;99.90;;;;;;4993113;28;20066;-77
2021/08/13 10:19:35;;;;;;;10.60;2.72;;;21.90;99.90;;;;;;4985398;28;20125;-77
2021/08/13 10:22:01;;;;;;;9.32;2.65;;;22.00;99.90;;;;;;4975014;28;20131;-77
2021/08/13 10:24:28;;;;;;;5.38;2.90;;;22.00;99.90;;;;;;4992680;28;20025;-77
2021/08/13 10:26:55;;;;;;;5.90;2.53;;;22.10;99.90;;;;;;4994142;28;20084;-77
2021/08/13 10:29:21;;;;;;;4.90;2.38;;;22.30;99.90;;;;;;4993526;28;20041;-78
2021/08/13 10:31:47;;;;;;;6.85;2.50;;;22.50;99.90;;;;;;4992707;28;20031;-77
2021/08/13 10:34:13;;;;;;;6.78;2.45;;;22.60;99.90;;;;;;4993438;28;20022;-77
2021/08/13 10:36:40;;;;;;;7.85;2.83;;;22.70;99.90;;;;;;4993073;28;20039;-77
2021/08/13 10:39:07;;;;;;;5.78;2.40;;;22.70;99.90;;;;;;4991807;28;20029;-77
2021/08/13 10:41:40;;;;;;;6.82;2.58;;;22.70;99.90;;;;;;4981116;28;20033;-77
2021/08/13 10:44:13;;;;;;;6.45;2.17;;;22.70;99.90;;;;;;4993414;28;20034;-77
2021/08/13 10:46:40;;;;;;;4.38;2.53;;;22.80;99.90;;;;;;4992237;28;20379;-78
2021/08/13 10:49:09;;;;;;;6.18;2.72;;;22.80;99.90;;;;;;4993067;28;20030;-77
2021/08/13 10:51:35;;;;;;;10.05;2.35;;;22.80;99.90;;;;;;4992294;28;20030;-76
2021/08/13 10:54:14;;;;;;;7.65;2.65;;;22.90;99.40;;;;;;4981778;28;20535;-76
2021/08/13 10:56:44;;;;;;;10.50;2.28;;;22.90;99.30;;;;;;4992533;28;20071;-76
2021/08/13 10:59:10;;;;;;;7.07;3.05;;;23.00;99.00;;;;;;4992028;28;20070;-76
2021/08/13 11:01:56;;;;;;;14.73;2.38;;;23.10;99.20;;;;;;4992598;28;20394;-78
2021/08/13 11:04:47;;;;;;;8.43;2.50;;;23.20;99.50;;;;;;4992580;28;20027;-77
2021/08/13 11:07:14;;;;;;;8.45;2.35;;;23.40;98.30;;;;;;4992163;28;20077;-77
2021/08/13 11:09:41;;;;;;;15.55;3.50;;;23.50;98.30;;;;;;4992658;28;20026;-77
2021/08/13 11:12:07;;;;;;;5.72;2.67;;;23.50;98.30;;;;;;4992702;28;20470;-77
2021/08/13 11:14:39;;;;;;;8.18;2.97;;;23.60;97.70;;;;;;4992381;28;20026;-76
2021/08/13 11:17:04;;;;;;;9.85;3.22;;;23.60;97.20;;;;;;4992750;28;20038;-78
2021/08/13 11:19:58;;;;;;;11.88;2.85;;;23.50;96.70;;;;;;4992307;28;20379;-78
2021/08/13 11:22:32;;;;;;;11.02;2.60;;;23.40;96.10;;;;;;4995039;28;20034;-77
2021/08/13 11:24:58;;;;;;;10.05;3.03;;;23.30;96.40;;;;;;4994520;28;20026;-78
2021/08/13 11:27:24;;;;;;;4.03;2.10;;;23.20;96.40;;;;;;4992176;28;20034;-78
2021/08/13 11:29:50;;;;;;;5.28;2.40;;;23.10;96.20;;;;;;4992784;28;20026;-76
2021/08/13 11:32:17;;;;;;;8.75;2.60;;;23.10;96.20;;;;;;4992653;28;20088;-76
2021/08/13 11:34:51;;;;;;;9.98;2.65;;;23.00;97.00;;;;;;4991692;28;20026;-77
2021/08/13 11:37:38;;;;;;;8.55;2.25;;;23.10;97.10;;;;;;4992732;28;20129;-77
2021/08/13 11:40:06;;;;;;;8.43;2.88;;;23.20;96.20;;;;;;4992816;28;20066;-78
2021/08/13 11:42:33;;;;;;;6.50;2.65;;;23.20;96.90;;;;;;4991791;28;20042;-76
2021/08/13 11:45:04;;;;;;;10.43;2.85;;;23.30;96.80;;;;;;4992525;28;20026;-77
2021/08/13 11:47:30;;;;;;;7.82;2.72;;;23.30;96.60;;;;;;4992065;28;20096;-78
2021/08/13 11:49:56;;;;;;;6.63;2.40;;;23.50;96.60;;;;;;4992195;28;20026;-77
2021/08/13 11:52:24;;;;;;;6.38;2.55;;;23.40;96.50;;;;;;4992752;28;20514;-79
2021/08/13 11:54:50;;;;;;;12.73;3.65;;;23.40;96.30;;;;;;4991485;28;20023;-77
2021/08/13 11:57:18;;;;;;;7.13;2.40;;;23.40;96.30;;;;;;4992730;28;20038;-76
2021/08/13 11:59:45;;;;;;;5.90;2.80;;;23.50;96.40;;;;;;4991712;28;20503;-77
2021/08/13 12:02:12;;;;;;;5.30;2.60;;;23.40;96.40;;;;;;4991709;28;20537;-77
2021/08/13 12:04:38;;;;;;;9.27;2.75;;;23.40;96.90;;;;;;4991792;28;20475;-78
2021/08/13 12:07:08;;;;;;;7.13;2.42;;;23.60;96.80;;;;;;4992555;28;20018;-76
2021/08/13 12:09:41;;;;;;;4.70;2.22;;;23.60;95.40;;;;;;4991386;28;20031;-77
2021/08/13 12:12:15;;;;;;;7.03;2.28;;;23.70;94.10;;;;;;4992187;28;20026;-78
2021/08/13 12:14:48;;;;;;;9.40;2.17;;;23.70;93.50;;;;;;4991990;28;20121;-77
2021/08/13 12:17:15;;;;;;;4.32;1.95;;;23.80;93.30;;;;;;4995222;28;20041;-78
2021/08/13 12:19:41;;;;;;;6.78;2.20;;;23.90;94.00;;;;;;4995426;28;20045;-77
2021/08/13 12:22:07;;;;;;;6.15;2.60;;;24.00;94.00;;;;;;4995757;28;20517;-78
2021/08/13 12:24:34;;;;;;;6.15;2.42;;;24.00;93.40;;;;;;4995317;28;20075;-78
2021/08/13 12:27:05;;;;;;;9.48;3.20;;;23.90;93.50;;;;;;4996341;28;20087;-77
2021/08/13 12:29:32;;;;;;;8.05;2.38;;;23.80;93.40;;;;;;4995914;28;20421;-78
2021/08/13 12:32:03;;;;;;;12.88;2.95;;;23.80;93.70;;;;;;4995402;28;20030;-78
2021/08/13 12:34:30;;;;;;;6.78;2.33;;;23.70;94.60;;;;;;4995405;28;20045;-77
2021/08/13 12:37:13;;;;;;;6.43;2.80;;;23.60;94.40;;;;;;4994722;28;20075;-77